Time;durP1;ratioP1;P1;durP2;ratioP2;P2;SDS_P1;SDS_P2;PMS_P1;PMS_P2;Temp;Humidity;BMP_temperature;BMP_pressure;BME280_temperature;BME280_humidity;BME280_pressure;Samples;Min_cycle;Max_cycle;Signal;HPM_P1;HPM_P2
2023/03/03 00:00:43;;;;;;;9.93;2.63;;;;;;;2.32;96.04;102028.94;5102125;28;20028;-65
2023/03/03 00:03:11;;;;;;;4.78;1.88;;;;;;;2.33;96.65;102021.81;5101582;28;20024;-66
2023/03/03 00:05:37;;;;;;;5.72;1.70;;;;;;;2.39;96.41;102018.72;5101552;28;20020;-65
2023/03/03 00:08:03;;;;;;;6.78;1.80;;;;;;;2.44;96.17;102026.31;5101342;28;20035;-66
2023/03/03 00:10:29;;;;;;;4.95;1.75;;;;;;;2.41;96.02;101999.97;5100915;28;20035;-65
2023/03/03 00:12:54;;;;;;;7.50;1.80;;;;;;;2.41;96.11;102006.13;5100456;28;20120;-66
2023/03/03 00:15:22;;;;;;;8.73;2.15;;;;;;;2.46;96.27;102006.66;5103181;28;20020;-66
2023/03/03 00:17:48;;;;;;;7.47;1.98;;;;;;;2.44;96.04;102005.91;5090710;28;20067;-67
2023/03/03 00:20:40;;;;;;;7.75;2.00;;;;;;;2.43;96.44;102001.56;5083802;28;20530;-66
2023/03/03 00:23:33;;;;;;;14.80;2.35;;;;;;;2.42;96.28;101993.69;5095276;28;20044;-66
2023/03/03 00:25:59;;;;;;;9.27;1.55;;;;;;;2.41;95.63;102000.81;5081342;28;20021;-66
2023/03/03 00:28:31;;;;;;;6.85;1.67;;;;;;;2.35;96.16;102010.13;5080523;28;20100;-65
2023/03/03 00:31:00;;;;;;;9.98;3.05;;;;;;;2.23;95.75;102013.69;5080890;28;20063;-65
2023/03/03 00:33:39;;;;;;;10.80;4.35;;;;;;;2.18;96.14;102015.00;5080819;28;20052;-66
2023/03/03 00:36:14;;;;;;;9.73;3.80;;;;;;;2.14;95.88;102016.19;5079247;28;20119;-66
2023/03/03 00:38:40;;;;;;;10.57;4.28;;;;;;;2.10;95.53;102012.91;5080539;28;20659;-65
2023/03/03 00:41:26;;;;;;;10.45;4.13;;;;;;;2.07;95.66;102008.69;5091049;28;20028;-65
2023/03/03 00:43:52;;;;;;;7.65;3.72;;;;;;;2.10;96.18;102013.75;5100554;28;20107;-65
2023/03/03 00:46:20;;;;;;;7.40;3.60;;;;;;;2.13;95.32;102012.69;5100216;28;20059;-66
2023/03/03 00:48:46;;;;;;;12.50;3.83;;;;;;;2.11;95.43;102018.09;5100510;28;20391;-65
2023/03/03 00:51:29;;;;;;;13.48;3.80;;;;;;;2.15;95.79;102024.03;5104913;28;20031;-65
2023/03/03 00:53:55;;;;;;;8.85;3.38;;;;;;;2.17;95.55;102030.09;5102133;28;20021;-66
2023/03/03 00:56:21;;;;;;;10.15;3.38;;;;;;;1.56;95.18;101949.69;5104009;28;20035;-65
2023/03/03 00:58:47;;;;;;;9.98;2.80;;;;;;;2.13;94.85;102041.91;5109780;28;20020;-65
2023/03/03 01:01:13;;;;;;;12.32;3.10;;;;;;;2.01;95.26;102013.59;5104739;28;20027;-66
2023/03/03 01:03:39;;;;;;;9.93;2.50;;;;;;;2.12;95.16;102042.88;5101258;28;20016;-67
2023/03/03 01:06:05;;;;;;;9.85;2.67;;;;;;;2.16;95.10;102043.50;5100562;28;20379;-65
2023/03/03 01:08:30;;;;;;;8.68;2.88;;;;;;;2.20;94.95;102040.47;5098654;28;20036;-65
2023/03/03 01:11:18;;;;;;;10.25;3.25;;;;;;;2.21;95.07;102043.97;5101051;28;20051;-66
2023/03/03 01:13:47;;;;;;;10.52;3.67;;;;;;;2.18;94.89;102033.59;5099888;28;20073;-65
2023/03/03 01:16:12;;;;;;;9.75;3.60;;;;;;;2.02;94.98;102015.28;5101384;28;20034;-65
2023/03/03 01:18:40;;;;;;;13.88;3.90;;;;;;;2.17;94.94;102026.59;5109935;28;20048;-65
2023/03/03 01:21:06;;;;;;;7.47;3.35;;;;;;;2.14;94.86;102027.66;5104718;28;20070;-66
2023/03/03 01:23:32;;;;;;;10.32;4.50;;;;;;;2.08;95.21;102020.13;5102088;28;20499;-65
2023/03/03 01:25:58;;;;;;;11.63;3.80;;;;;;;2.06;94.75;102022.94;5101037;28;20027;-65
2023/03/03 01:28:23;;;;;;;14.13;4.00;;;;;;;2.04;95.22;102026.66;5099988;28;20114;-65
2023/03/03 01:30:49;;;;;;;7.50;3.70;;;;;;;1.96;95.06;102021.06;5100368;28;20087;-66
2023/03/03 01:33:15;;;;;;;13.35;4.43;;;;;;;1.92;94.35;102014.28;5100188;28;20066;-65
2023/03/03 01:35:47;;;;;;;12.05;4.15;;;;;;;1.94;94.86;102017.66;5101256;28;20100;-65
2023/03/03 01:38:14;;;;;;;15.50;4.90;;;;;;;1.98;94.82;102025.28;5081138;28;20463;-65
2023/03/03 01:40:39;;;;;;;19.70;7.78;;;;;;;1.82;94.44;102024.72;5079032;28;20085;-66
2023/03/03 01:43:05;;;;;;;18.80;7.28;;;;;;;1.86;94.47;102023.56;5093540;28;20039;-66
2023/03/03 01:45:52;;;;;;;20.75;8.05;;;;;;;1.75;94.05;102028.78;5099526;28;20024;-66
2023/03/03 01:48:31;;;;;;;19.85;7.63;;;;;;;1.70;94.51;102023.81;5069128;28;20064;-65
2023/03/03 01:51:04;;;;;;;22.70;7.90;;;;;;;1.78;94.62;102020.59;5101274;28;20085;-66
2023/03/03 01:53:38;;;;;;;13.95;5.82;;;;;;;1.82;94.32;102016.75;5100510;28;20028;-65
2023/03/03 01:56:07;;;;;;;21.50;9.23;;;;;;;1.87;94.61;102009.31;5101640;28;20020;-65
2023/03/03 01:58:35;;;;;;;18.50;6.22;;;;;;;1.85;94.01;102009.44;5101311;28;20267;-66
2023/03/03 02:01:06;;;;;;;19.27;6.53;;;;;;;1.87;94.42;102012.81;5101810;28;20098;-65
2023/03/03 02:03:33;;;;;;;16.50;6.60;;;;;;;1.84;93.97;102021.00;5104935;28;20070;-66
2023/03/03 02:06:13;;;;;;;70.53;12.52;;;;;;;1.62;94.51;102015.56;5105028;28;20463;-66
2023/03/03 02:09:01;;;;;;;43.88;12.10;;;;;;;1.71;94.29;102016.69;5101715;28;20030;-65
2023/03/03 02:11:30;;;;;;;51.70;11.90;;;;;;;1.75;94.01;102024.31;5104938;28;20020;-65
2023/03/03 02:13:55;;;;;;;65.00;14.00;;;;;;;1.78;94.38;102018.78;5103555;28;20035;-65
2023/03/03 02:16:20;;;;;;;57.08;12.23;;;;;;;1.80;94.09;102010.72;5101846;28;20023;-66
2023/03/03 02:18:46;;;;;;;60.42;13.02;;;;;;;1.78;94.28;102024.09;5094049;28;20052;-66
2023/03/03 02:21:21;;;;;;;50.38;12.85;;;;;;;1.79;94.02;102028.47;5083324;28;20085;-65
2023/03/03 02:24:22;;;;;;;53.97;12.35;;;;;;;1.82;94.24;102025.59;5079853;28;20025;-66
2023/03/03 02:26:47;;;;;;;46.08;13.02;;;;;;;1.83;93.40;102034.41;5078905;28;20020;-66
2023/03/03 02:29:13;;;;;;;89.28;14.73;;;;;;;1.71;93.93;102009.59;5078325;28;20441;-65
2023/03/03 02:31:38;;;;;;;71.68;16.45;;;;;;;1.86;93.96;102027.06;5092249;28;20039;-66
2023/03/03 02:34:04;;;;;;;58.72;15.50;;;;;;;1.77;93.95;102001.19;5098473;28;20099;-65
2023/03/03 02:36:32;;;;;;;48.25;13.63;;;;;;;1.98;93.66;102025.28;5099264;28;20461;-65
2023/03/03 02:39:17;;;;;;;54.35;13.75;;;;;;;1.99;94.01;102027.00;5099331;28;20040;-66
2023/03/03 02:42:06;;;;;;;58.42;15.18;;;;;;;2.02;94.11;102025.91;5100138;28;20027;-65
2023/03/03 02:44:33;;;;;;;75.88;15.75;;;;;;;2.06;94.16;102022.09;5099383;28;20036;-65
2023/03/03 02:46:59;;;;;;;103.10;14.98;;;;;;;2.16;93.46;102024.91;5099674;28;20032;-65
2023/03/03 02:49:35;;;;;;;104.28;13.90;;;;;;;2.33;93.84;102014.69;5099216;28;20038;-67
2023/03/03 02:52:04;;;;;;;235.77;20.55;;;;;;;2.40;93.63;102004.47;5099308;28;20031;-65
2023/03/03 02:54:30;;;;;;;81.13;13.30;;;;;;;2.47;93.53;102004.84;5099333;28;20028;-66
2023/03/03 02:56:57;;;;;;;78.28;14.00;;;;;;;2.48;94.28;101991.41;5099018;28;20107;-66
2023/03/03 02:59:23;;;;;;;52.55;13.07;;;;;;;2.56;93.72;101993.50;5098591;28;20028;-65
2023/03/03 03:01:49;;;;;;;30.05;11.50;;;;;;;2.59;94.00;102004.75;5098768;28;20024;-65
2023/03/03 03:04:17;;;;;;;42.20;11.50;;;;;;;2.61;95.36;101999.31;5099022;28;20023;-66
2023/03/03 03:06:43;;;;;;;29.40;12.23;;;;;;;2.73;95.39;102011.66;5099443;28;20523;-65
2023/03/03 03:09:09;;;;;;;26.92;11.73;;;;;;;2.75;94.66;102012.41;5099120;28;20052;-66
2023/03/03 03:11:35;;;;;;;49.50;13.93;;;;;;;2.75;95.29;102014.22;5098634;28;20089;-66
2023/03/03 03:14:02;;;;;;;29.45;12.52;;;;;;;2.73;94.67;102014.31;5097666;28;20441;-66
2023/03/03 03:16:28;;;;;;;33.13;13.18;;;;;;;2.70;95.07;102013.69;5098320;28;20040;-66
2023/03/03 03:18:53;;;;;;;53.53;14.23;;;;;;;2.63;94.92;102009.81;5096702;28;20067;-66
2023/03/03 03:21:19;;;;;;;30.35;11.63;;;;;;;2.54;95.30;102011.38;5098242;28;20028;-66
2023/03/03 03:23:45;;;;;;;32.10;13.38;;;;;;;2.43;94.74;102003.38;5099695;28;20089;-66
2023/03/03 03:26:11;;;;;;;41.13;13.35;;;;;;;2.31;95.02;102005.97;5100742;28;20028;-66
2023/03/03 03:28:36;;;;;;;25.38;12.23;;;;;;;2.25;95.24;102006.47;5101178;28;20035;-66
2023/03/03 03:31:04;;;;;;;38.42;12.85;;;;;;;2.21;95.08;102002.34;5100379;28;20028;-66
2023/03/03 03:33:30;;;;;;;27.77;12.48;;;;;;;2.06;95.34;101974.28;5102866;28;20478;-66
2023/03/03 03:35:56;;;;;;;22.02;11.18;;;;;;;2.18;94.90;101994.59;5104653;28;20023;-66
2023/03/03 03:38:23;;;;;;;22.95;10.82;;;;;;;2.19;94.49;101991.00;5101849;28;20028;-65
2023/03/03 03:40:48;;;;;;;19.95;10.38;;;;;;;2.12;95.08;101981.81;5099954;28;20062;-67
2023/03/03 03:43:14;;;;;;;19.15;9.45;;;;;;;2.16;94.50;101980.59;5099631;28;20394;-66
2023/03/03 03:45:42;;;;;;;11.23;6.80;;;;;;;2.08;94.72;101973.19;5099853;28;20027;-66
2023/03/03 03:48:08;;;;;;;7.90;5.25;;;;;;;2.10;95.00;101978.41;5098802;28;20024;-66
2023/03/03 03:50:34;;;;;;;17.38;8.40;;;;;;;2.09;94.30;101982.03;5098911;28;20074;-65
2023/03/03 03:52:59;;;;;;;18.30;8.82;;;;;;;2.08;94.78;101977.66;5098136;28;20012;-65
2023/03/03 03:55:25;;;;;;;15.93;7.88;;;;;;;2.03;94.45;101977.19;5095764;28;20512;-65
2023/03/03 03:57:50;;;;;;;19.70;9.32;;;;;;;2.04;94.67;101977.06;5078149;28;20344;-65
2023/03/03 04:00:16;;;;;;;22.90;9.45;;;;;;;2.07;94.52;101974.16;5097895;28;20027;-65
2023/03/03 04:02:41;;;;;;;26.70;9.10;;;;;;;2.09;94.35;101979.38;5097709;28;20034;-66
2023/03/03 04:05:07;;;;;;;38.58;8.70;;;;;;;2.15;94.68;101988.66;5098108;28;20043;-65
2023/03/03 04:07:33;;;;;;;91.45;11.55;;;;;;;2.16;94.56;101985.91;5097717;28;20367;-66
2023/03/03 04:09:58;;;;;;;44.05;10.63;;;;;;;2.20;94.24;101982.06;5098058;28;20087;-65
2023/03/03 04:12:24;;;;;;;84.30;11.00;;;;;;;2.25;94.30;101985.22;5098681;28;20471;-65
2023/03/03 04:14:49;;;;;;;98.20;12.63;;;;;;;2.30;94.56;101984.88;5114135;28;20044;-66
2023/03/03 04:17:17;;;;;;;95.28;11.73;;;;;;;2.30;94.04;101977.75;5097509;28;20031;-66
2023/03/03 04:19:42;;;;;;;55.08;13.02;;;;;;;2.25;94.12;101963.09;5097477;28;20406;-65
2023/03/03 04:22:08;;;;;;;195.10;14.55;;;;;;;2.19;94.37;101979.53;5083660;28;20039;-66
2023/03/03 04:24:33;;;;;;;213.27;15.02;;;;;;;2.09;94.27;101968.75;5077742;28;20020;-65
2023/03/03 04:26:59;;;;;;;192.90;14.07;;;;;;;2.01;95.12;101973.78;5077800;28;20090;-66
2023/03/03 04:29:25;;;;;;;82.90;13.43;;;;;;;2.00;95.17;101967.63;5077387;28;20037;-66
2023/03/03 04:31:50;;;;;;;445.75;23.25;;;;;;;1.82;95.05;101972.50;5077311;28;20029;-65
2023/03/03 04:34:16;;;;;;;111.40;13.98;;;;;;;1.85;95.17;101974.06;5077650;28;20033;-65
2023/03/03 04:36:41;;;;;;;263.65;17.13;;;;;;;1.84;95.44;101953.81;5077726;28;20058;-66
2023/03/03 04:39:06;;;;;;;67.38;12.43;;;;;;;1.93;94.91;101970.88;5075730;28;20044;-65
2023/03/03 04:41:32;;;;;;;84.88;11.52;;;;;;;1.94;94.79;101964.59;5076778;28;20035;-65
2023/03/03 04:43:57;;;;;;;90.75;14.02;;;;;;;1.97;94.42;101969.66;5076596;28;20117;-65
2023/03/03 04:46:23;;;;;;;55.67;12.20;;;;;;;1.96;94.54;101965.31;5076956;28;20028;-65
2023/03/03 04:48:48;;;;;;;29.15;10.82;;;;;;;1.95;94.59;101972.41;5076464;28;20043;-66
2023/03/03 04:51:15;;;;;;;27.15;11.45;;;;;;;1.96;94.74;101965.31;5075939;28;20048;-66
2023/03/03 04:53:42;;;;;;;31.08;10.98;;;;;;;1.93;94.70;101960.25;5076598;28;20059;-65
2023/03/03 04:56:07;;;;;;;30.50;11.98;;;;;;;1.92;94.64;101964.72;5077879;28;20051;-66
2023/03/03 04:58:32;;;;;;;34.92;11.32;;;;;;;1.91;94.34;101951.53;5081877;28;20025;-65
2023/03/03 05:00:58;;;;;;;67.30;13.55;;;;;;;1.88;94.54;101955.25;5086149;28;20032;-65
2023/03/03 05:03:23;;;;;;;56.15;14.23;;;;;;;1.81;94.10;101960.19;5083541;28;20073;-66
2023/03/03 05:05:49;;;;;;;191.35;16.85;;;;;;;1.76;94.47;101950.88;5082543;28;20038;-66
2023/03/03 05:08:15;;;;;;;80.50;14.32;;;;;;;1.75;94.14;101950.00;5081898;28;20173;-67
2023/03/03 05:10:40;;;;;;;45.00;13.30;;;;;;;1.75;94.16;101943.88;5077351;28;20131;-65
2023/03/03 05:13:07;;;;;;;49.53;13.23;;;;;;;1.70;94.00;101946.88;5074502;28;20071;-64
2023/03/03 05:15:32;;;;;;;55.00;13.10;;;;;;;1.66;94.33;101942.75;5079984;28;20031;-63
2023/03/03 05:17:58;;;;;;;55.95;12.82;;;;;;;1.60;93.85;101951.16;5079595;28;20032;-65
2023/03/03 05:20:24;;;;;;;154.50;13.73;;;;;;;1.41;94.33;101943.69;5081039;28;20048;-65
2023/03/03 05:22:49;;;;;;;32.95;10.07;;;;;;;1.52;94.55;101945.56;5078215;28;20478;-64
2023/03/03 05:25:15;;;;;;;51.83;12.25;;;;;;;1.57;94.44;101948.75;5077933;28;20025;-65
2023/03/03 05:27:42;;;;;;;57.03;10.50;;;;;;;1.44;94.48;101940.81;5080493;28;20447;-66
2023/03/03 05:30:09;;;;;;;87.68;11.00;;;;;;;1.54;94.76;101956.91;5078800;28;20036;-65
2023/03/03 05:32:34;;;;;;;220.85;13.50;;;;;;;1.50;95.23;101958.94;5078670;28;20042;-66
2023/03/03 05:35:00;;;;;;;50.30;9.25;;;;;;;1.65;95.45;101963.13;5080186;28;20503;-66
2023/03/03 05:37:26;;;;;;;139.85;10.43;;;;;;;1.76;94.93;101948.25;5080568;28;20039;-66
2023/03/03 05:39:51;;;;;;;80.22;10.00;;;;;;;1.82;95.26;101956.59;5079804;28;20434;-65
2023/03/03 05:42:17;;;;;;;38.40;9.75;;;;;;;1.86;95.46;101952.75;5080549;28;20089;-65
2023/03/03 05:44:42;;;;;;;46.58;9.65;;;;;;;1.92;95.49;101953.22;5078018;28;20107;-67
2023/03/03 05:47:08;;;;;;;92.05;12.00;;;;;;;1.94;94.97;101948.66;5080367;28;20036;-66
2023/03/03 05:49:34;;;;;;;110.53;10.23;;;;;;;1.94;95.44;101932.72;5080002;28;20028;-66
2023/03/03 05:52:00;;;;;;;57.78;9.30;;;;;;;2.05;95.30;101938.06;5078785;28;20487;-67
2023/03/03 05:54:25;;;;;;;48.20;9.10;;;;;;;2.08;94.84;101935.19;5079567;28;20034;-66
2023/03/03 05:56:50;;;;;;;35.13;8.77;;;;;;;2.11;95.41;101927.81;5082647;28;20040;-66
2023/03/03 05:59:16;;;;;;;24.38;7.90;;;;;;;2.15;95.46;101933.75;5082357;28;20017;-67
2023/03/03 06:01:41;;;;;;;89.10;9.70;;;;;;;2.18;95.15;101933.53;5077904;28;20393;-66
2023/03/03 06:04:07;;;;;;;46.63;7.68;;;;;;;2.19;95.30;101926.44;5075994;28;20028;-66
2023/03/03 06:06:33;;;;;;;91.15;8.13;;;;;;;2.22;95.30;101919.06;5075179;28;20024;-66
2023/03/03 06:08:58;;;;;;;123.70;10.98;;;;;;;1.90;96.56;101918.84;5076842;28;20095;-66
2023/03/03 06:11:23;;;;;;;86.53;12.43;;;;;;;1.94;96.53;101922.97;5077385;28;20063;-66
2023/03/03 06:13:49;;;;;;;99.63;12.45;;;;;;;2.01;95.82;101924.19;5078026;28;20219;-66
2023/03/03 06:16:14;;;;;;;74.78;11.15;;;;;;;2.07;95.97;101918.41;5079566;28;20016;-66
2023/03/03 06:18:40;;;;;;;58.75;10.00;;;;;;;2.11;95.78;101911.06;5078876;28;20036;-67
2023/03/03 06:21:05;;;;;;;160.38;14.35;;;;;;;1.82;96.02;101910.59;5114738;28;20126;-67
2023/03/03 06:23:31;;;;;;;48.13;10.77;;;;;;;1.84;95.98;101917.50;5118215;28;20031;-67
2023/03/03 06:25:57;;;;;;;49.13;11.88;;;;;;;1.90;95.99;101910.88;5119232;27;20600;-66
2023/03/03 06:28:23;;;;;;;38.92;11.93;;;;;;;1.95;96.00;101913.19;5118548;28;20031;-67
2023/03/03 06:30:52;;;;;;;29.20;10.63;;;;;;;1.97;95.93;101906.81;5117953;28;20032;-67
2023/03/03 06:33:17;;;;;;;32.15;11.30;;;;;;;1.79;95.66;101866.59;5117010;28;20028;-66
2023/03/03 06:35:43;;;;;;;22.63;9.35;;;;;;;2.05;95.31;101900.91;5117590;28;19954;-67
2023/03/03 06:38:08;;;;;;;29.63;10.65;;;;;;;2.02;95.39;101895.81;5118933;28;20039;-67
2023/03/03 06:40:34;;;;;;;28.27;10.95;;;;;;;1.97;95.39;101901.50;5119190;28;20027;-67
2023/03/03 06:43:02;;;;;;;24.75;10.93;;;;;;;1.90;95.34;101913.53;5120760;28;20099;-66
2023/03/03 06:45:27;;;;;;;26.75;11.48;;;;;;;1.96;95.42;101904.28;5124791;28;20246;-66
2023/03/03 06:47:52;;;;;;;23.90;10.85;;;;;;;2.01;95.09;101907.41;5118658;28;20024;-65
2023/03/03 06:50:19;;;;;;;25.75;10.27;;;;;;;2.12;95.45;101904.81;5117740;28;20498;-66
2023/03/03 06:52:45;;;;;;;23.80;10.07;;;;;;;2.18;94.79;101904.31;5118539;28;20542;-65
2023/03/03 06:55:16;;;;;;;23.75;10.75;;;;;;;2.23;95.09;101903.97;5118575;28;20123;-66
2023/03/03 06:57:42;;;;;;;18.52;9.30;;;;;;;2.25;94.60;101905.56;5119587;28;20027;-66
2023/03/03 07:00:14;;;;;;;17.80;8.13;;;;;;;2.32;94.78;101914.75;5118886;28;20023;-66
2023/03/03 07:02:40;;;;;;;15.88;9.77;;;;;;;2.35;94.13;101910.97;5118258;28;20087;-66
2023/03/03 07:05:11;;;;;;;16.05;9.98;;;;;;;2.35;94.34;101882.63;5118023;28;20540;-66
2023/03/03 07:07:37;;;;;;;11.02;4.88;;;;;;;2.46;93.96;101911.00;5118470;28;20390;-65
2023/03/03 07:10:12;;;;;;;9.27;4.63;;;;;;;2.38;94.18;101883.34;5118497;28;20035;-65
2023/03/03 07:12:37;;;;;;;;;;;;;;;2.59;94.66;101903.78;5120288;28;20066;-65
2023/03/03 07:15:15;;;;;;;122.20;8.45;;;;;;;2.58;94.25;101895.91;5119125;28;19914;-65
2023/03/03 07:17:46;;;;;;;91.10;7.20;;;;;;;2.69;94.58;101901.25;5117581;28;20058;-65
2023/03/03 07:20:19;;;;;;;48.85;5.25;;;;;;;2.74;94.59;101895.56;5117324;28;20101;-65
2023/03/03 07:22:45;;;;;;;77.28;5.65;;;;;;;2.77;94.83;101895.31;5118031;28;20423;-65
2023/03/03 07:25:31;;;;;;;46.28;6.43;;;;;;;2.81;94.96;101897.63;5116184;28;20035;-65
2023/03/03 07:28:15;;;;;;;86.25;6.35;;;;;;;2.89;94.53;101891.69;5117938;28;20443;-65
2023/03/03 07:30:41;;;;;;;144.88;6.25;;;;;;;2.77;94.92;101896.16;5117403;28;20027;-66
2023/03/03 07:33:37;;;;;;;139.07;5.22;;;;;;;2.69;95.51;101879.16;5117741;28;20035;-65
2023/03/03 07:36:05;;;;;;;36.42;3.00;;;;;;;2.82;95.19;101872.72;5116950;28;20229;-65
2023/03/03 07:38:40;;;;;;;136.73;4.82;;;;;;;3.06;95.12;101880.53;5116721;28;20443;-65
2023/03/03 07:41:22;;;;;;;58.25;3.97;;;;;;;3.22;94.63;101884.63;5117146;28;20023;-65
2023/03/03 07:43:53;;;;;;;45.60;4.60;;;;;;;3.30;94.23;101882.16;5115477;28;20405;-66
2023/03/03 07:46:40;;;;;;;51.17;4.10;;;;;;;3.38;94.15;101886.84;5117251;28;20027;-65
2023/03/03 07:49:22;;;;;;;37.58;4.75;;;;;;;3.33;94.24;101889.06;5112246;28;20049;-66
2023/03/03 07:51:53;;;;;;;58.80;4.72;;;;;;;3.33;94.63;101883.75;5113929;28;20027;-65
2023/03/03 07:54:46;;;;;;;21.70;4.47;;;;;;;3.35;94.41;101861.38;5115214;28;20039;-65
2023/03/03 07:57:17;;;;;;;11.98;5.55;;;;;;;3.51;94.35;101874.25;5116085;28;20023;-65
2023/03/03 08:00:10;;;;;;;22.20;8.18;;;;;;;3.47;94.43;101875.47;5121663;28;20092;-66
2023/03/03 08:03:09;;;;;;;16.60;7.97;;;;;;;3.49;95.07;101873.53;5093072;28;20134;-65
2023/03/03 08:05:42;;;;;;;18.92;5.82;;;;;;;3.48;93.72;101869.19;5119007;28;20054;-65
2023/03/03 08:08:08;;;;;;;24.30;6.75;;;;;;;3.51;93.87;101868.94;5117180;28;20035;-65
2023/03/03 08:10:51;;;;;;;11.07;5.88;;;;;;;3.52;93.84;101870.63;5116836;28;20027;-64
2023/03/03 08:13:40;;;;;;;19.33;7.03;;;;;;;3.55;94.07;101862.38;5117483;28;20026;-65
2023/03/03 08:16:08;;;;;;;26.73;8.32;;;;;;;3.53;93.37;101856.34;5116298;28;20065;-67
2023/03/03 08:18:45;;;;;;;15.05;6.40;;;;;;;3.63;93.97;101853.75;5116552;28;20028;-66
2023/03/03 08:21:15;;;;;;;21.05;5.03;;;;;;;3.68;93.75;101852.41;5118011;28;20036;-65
2023/03/03 08:23:41;;;;;;;93.68;7.40;;;;;;;3.64;93.93;101855.44;5116818;28;20024;-66
2023/03/03 08:26:08;;;;;;;59.97;7.00;;;;;;;3.65;93.80;101852.66;5117632;28;20034;-66
2023/03/03 08:28:34;;;;;;;50.10;6.05;;;;;;;3.58;93.57;101840.84;5117682;28;20079;-66
2023/03/03 08:31:00;;;;;;;30.38;6.60;;;;;;;3.64;94.91;101828.81;5117765;28;20164;-66
2023/03/03 08:33:26;;;;;;;12.90;5.60;;;;;;;3.76;94.46;101828.63;5117873;28;20330;-66
2023/03/03 08:35:51;;;;;;;12.60;6.22;;;;;;;3.94;94.71;101830.69;5120047;28;20031;-66
2023/03/03 08:38:19;;;;;;;12.95;6.20;;;;;;;4.05;94.36;101819.16;5122084;28;20422;-66
2023/03/03 08:40:46;;;;;;;12.77;5.82;;;;;;;4.11;94.52;101816.81;5120946;27;20042;-66
2023/03/03 08:43:16;;;;;;;16.33;7.32;;;;;;;4.30;94.28;101801.88;5121631;28;20126;-66
2023/03/03 08:45:45;;;;;;;17.15;7.35;;;;;;;4.35;94.13;101797.84;5116764;28;20458;-66
2023/03/03 08:48:11;;;;;;;11.73;6.28;;;;;;;4.50;93.85;101808.97;5116174;28;20023;-66
2023/03/03 08:50:37;;;;;;;12.73;6.40;;;;;;;4.61;94.26;101800.06;5117736;28;20440;-66
2023/03/03 08:53:03;;;;;;;15.48;7.43;;;;;;;4.74;93.73;101802.47;5119673;28;20023;-68
2023/03/03 08:55:29;;;;;;;11.20;6.35;;;;;;;4.86;94.43;101801.34;5120557;28;20119;-66
2023/03/03 08:57:55;;;;;;;10.90;5.20;;;;;;;4.85;93.80;101781.00;5120374;28;20087;-66
2023/03/03 09:00:20;;;;;;;12.10;5.43;;;;;;;4.91;94.05;101783.97;5121088;28;20032;-66
2023/03/03 09:02:46;;;;;;;12.63;5.68;;;;;;;4.96;94.16;101783.53;5119972;28;20424;-67
2023/03/03 09:05:12;;;;;;;8.32;4.55;;;;;;;5.09;94.19;101781.44;5120254;28;20025;-66
2023/03/03 09:07:38;;;;;;;11.85;5.30;;;;;;;5.18;93.71;101785.97;5120083;28;20382;-66
2023/03/03 09:10:05;;;;;;;6.97;4.40;;;;;;;5.16;93.92;101769.22;5120483;28;20095;-67
2023/03/03 09:12:39;;;;;;;9.45;4.28;;;;;;;5.30;93.91;101783.16;5119241;28;20019;-66
2023/03/03 09:15:25;;;;;;;8.82;4.32;;;;;;;5.37;94.31;101765.59;5121494;28;20480;-66
2023/03/03 09:17:50;;;;;;;10.05;5.03;;;;;;;5.31;93.49;101744.81;5119778;27;20038;-67
2023/03/03 09:20:38;;;;;;;7.97;4.40;;;;;;;5.17;93.82;101722.09;5120346;28;20099;-68
2023/03/03 09:23:37;;;;;;;6.85;3.78;;;;;;;5.27;94.38;101738.09;5120258;28;20049;-66
2023/03/03 09:26:29;;;;;;;6.68;4.20;;;;;;;5.35;93.83;101743.53;5120547;28;20095;-67
2023/03/03 09:29:05;;;;;;;5.45;3.53;;;;;;;5.40;93.69;101749.31;5119762;28;20031;-66
2023/03/03 09:31:40;;;;;;;5.03;3.10;;;;;;;5.47;94.09;101747.75;5120103;28;20055;-67
2023/03/03 09:34:22;;;;;;;6.82;3.15;;;;;;;5.53;94.11;101754.31;5119200;28;20044;-66
2023/03/03 09:36:49;;;;;;;5.68;2.72;;;;;;;5.51;94.06;101746.47;5119915;28;20130;-67
2023/03/03 09:39:24;;;;;;;9.13;4.22;;;;;;;5.49;95.04;101743.09;5120308;28;20051;-67
2023/03/03 09:41:55;;;;;;;10.15;4.20;;;;;;;5.51;94.87;101746.47;5120682;28;20024;-67
2023/03/03 09:44:32;;;;;;;5.38;3.25;;;;;;;5.60;94.54;101740.28;5115296;28;20113;-67
2023/03/03 09:47:22;;;;;;;11.00;3.85;;;;;;;5.71;94.80;101736.59;5117018;28;20083;-67
2023/03/03 09:50:04;;;;;;;9.32;4.28;;;;;;;5.72;95.55;101734.75;5119568;28;20244;-67
2023/03/03 09:52:38;;;;;;;8.98;3.25;;;;;;;5.79;95.15;101723.34;5120562;28;20087;-67
2023/03/03 09:55:55;;;;;;;4.45;2.85;;;;;;;5.93;95.30;101734.59;5120725;28;20461;-66
2023/03/03 09:58:44;;;;;;;5.25;3.50;;;;;;;6.02;95.09;101726.53;5092075;27;20043;-67
2023/03/03 10:01:47;;;;;;;7.05;3.30;;;;;;;6.11;95.06;101725.66;5120188;28;20082;-67
2023/03/03 10:04:40;;;;;;;9.45;3.22;;;;;;;6.17;94.99;101720.72;5122554;28;20038;-68
2023/03/03 10:07:31;;;;;;;6.60;3.58;;;;;;;6.34;94.67;101714.59;5120978;28;20032;-67
2023/03/03 10:10:26;;;;;;;4.07;3.17;;;;;;;6.49;94.00;101717.59;5120403;28;20027;-67
2023/03/03 10:13:22;;;;;;;8.52;2.67;;;;;;;6.46;93.88;101716.06;5106165;28;20039;-67
2023/03/03 10:16:00;;;;;;;5.38;2.95;;;;;;;6.51;93.78;101713.78;5119854;28;20164;-66
2023/03/03 10:18:28;;;;;;;7.18;2.50;;;;;;;6.57;93.65;101707.00;5121231;28;20085;-67
2023/03/03 10:21:00;;;;;;;11.63;3.35;;;;;;;6.72;93.88;101707.31;5120251;28;20086;-67
2023/03/03 10:24:10;;;;;;;4.85;2.60;;;;;;;6.82;93.77;101708.06;5121251;28;20027;-67
2023/03/03 10:26:48;;;;;;;6.45;2.75;;;;;;;6.73;94.38;101707.16;5056982;28;20128;-67
2023/03/03 10:29:32;;;;;;;5.38;3.05;;;;;;;6.83;94.84;101699.06;5056695;28;20029;-66
2023/03/03 10:32:27;;;;;;;6.40;2.95;;;;;;;6.99;94.06;101696.53;5100977;28;20031;-67
2023/03/03 10:35:07;;;;;;;8.48;3.30;;;;;;;7.06;93.96;101689.56;5119488;28;20160;-67
2023/03/03 10:37:51;;;;;;;4.45;2.75;;;;;;;7.07;93.98;101685.06;5117983;28;20547;-67
2023/03/03 10:40:39;;;;;;;9.80;2.83;;;;;;;7.18;94.03;101684.81;5126869;28;20057;-67
2023/03/03 10:43:30;;;;;;;3.25;2.20;;;;;;;7.23;93.87;101679.84;5125081;28;20083;-67
2023/03/03 10:46:23;;;;;;;7.15;2.42;;;;;;;7.29;94.29;101676.53;5091179;28;20035;-68
2023/03/03 10:49:15;;;;;;;6.68;2.28;;;;;;;7.42;93.45;101668.09;5116855;28;20024;-66
2023/03/03 10:51:53;;;;;;;7.45;2.08;;;;;;;7.50;93.83;101668.16;5116900;28;20061;-67
2023/03/03 10:54:24;;;;;;;3.60;2.28;;;;;;;7.64;93.94;101671.25;5120866;28;20028;-67
2023/03/03 10:57:10;;;;;;;5.18;2.00;;;;;;;7.73;93.98;101663.09;5119914;28;20020;-67
2023/03/03 10:59:56;;;;;;;6.47;2.80;;;;;;;7.83;94.01;101649.56;5118563;28;20072;-67
2023/03/03 11:02:27;;;;;;;6.75;2.35;;;;;;;7.93;93.38;101642.25;5118799;28;20035;-67
2023/03/03 11:04:58;;;;;;;7.70;2.10;;;;;;;8.03;93.75;101642.13;5118432;27;20081;-67
2023/03/03 11:07:49;;;;;;;6.25;2.60;;;;;;;8.18;93.95;101634.31;5114317;28;20027;-66
2023/03/03 11:10:29;;;;;;;8.43;2.20;;;;;;;8.16;93.79;101612.19;5118718;28;20039;-67
2023/03/03 11:13:12;;;;;;;6.95;1.85;;;;;;;8.31;94.35;101629.31;5118875;28;20034;-67
2023/03/03 11:15:48;;;;;;;7.10;1.30;;;;;;;8.30;93.67;101622.25;5118931;28;20032;-67
2023/03/03 11:18:42;;;;;;;5.55;1.45;;;;;;;8.47;93.55;101615.13;5118625;28;20054;-67
2023/03/03 11:21:33;;;;;;;5.43;1.40;;;;;;;8.52;94.24;101603.91;5119149;28;20555;-67
2023/03/03 11:24:08;;;;;;;7.15;1.20;;;;;;;8.59;94.02;101610.28;5118112;28;20028;-67
2023/03/03 11:26:51;;;;;;;4.22;1.15;;;;;;;8.63;93.95;101607.09;5120942;28;20019;-67
2023/03/03 11:29:41;;;;;;;6.00;0.98;;;;;;;8.66;93.51;101596.03;5128572;28;20019;-67
2023/03/03 11:32:17;;;;;;;5.25;1.25;;;;;;;8.77;93.86;101591.31;5120115;28;20035;-67
2023/03/03 11:34:54;;;;;;;10.93;1.35;;;;;;;8.84;92.93;101581.59;5118955;28;20030;-67
2023/03/03 11:37:44;;;;;;;9.05;1.40;;;;;;;8.73;92.73;101582.78;5118477;28;20038;-68
2023/03/03 11:40:20;;;;;;;9.07;1.60;;;;;;;8.81;93.86;101566.69;5118348;28;20096;-67
2023/03/03 11:43:00;;;;;;;6.57;1.63;;;;;;;8.99;93.14;101571.03;5118910;28;20027;-67
2023/03/03 11:45:36;;;;;;;8.85;1.15;;;;;;;9.20;92.39;101573.16;5100529;28;20016;-70